createdAt,value
2018-02-18T00:00:38.566Z,12.60
2018-02-18T00:03:08.430Z,13.20
2018-02-18T00:05:38.105Z,12.02
2018-02-18T00:08:07.951Z,12.07
2018-02-18T00:10:38.009Z,12.70
2018-02-18T00:13:07.654Z,12.15
2018-02-18T00:15:37.288Z,11.52
2018-02-18T00:18:08.674Z,12.93
2018-02-18T00:20:38.537Z,14.05
2018-02-18T00:23:08.391Z,12.95
2018-02-18T00:25:38.238Z,13.38
2018-02-18T00:28:08.073Z,13.20
2018-02-18T00:30:38.220Z,14.85
2018-02-18T00:33:08.041Z,14.10
2018-02-18T00:35:37.944Z,12.18
2018-02-18T00:38:07.826Z,12.90
2018-02-18T00:40:37.230Z,14.40
2018-02-18T00:43:07.044Z,14.50
2018-02-18T00:45:36.873Z,13.90
2018-02-18T00:48:06.724Z,14.40
2018-02-18T00:50:36.400Z,14.20
2018-02-18T00:53:06.453Z,14.45
2018-02-18T00:55:36.344Z,13.65
2018-02-18T00:58:06.176Z,14.77
2018-02-18T01:00:36.212Z,14.63
2018-02-18T01:03:06.046Z,15.57
2018-02-18T01:05:35.857Z,14.65
2018-02-18T01:08:05.170Z,14.65
2018-02-18T01:10:35.349Z,15.80
2018-02-18T01:13:05.190Z,13.65
2018-02-18T01:15:35.069Z,13.62
2018-02-18T01:18:04.935Z,15.20
2018-02-18T01:20:34.777Z,15.00
2018-02-18T01:23:04.593Z,15.35
2018-02-18T01:25:34.425Z,14.48
2018-02-18T01:28:04.287Z,12.50
2018-02-18T01:30:34.147Z,13.95
2018-02-18T01:33:04.004Z,13.48
2018-02-18T01:35:33.849Z,14.27
2018-02-18T01:38:03.884Z,14.27
2018-02-18T01:40:33.931Z,15.40
2018-02-18T01:43:03.791Z,14.45
2018-02-18T01:45:33.714Z,14.65
2018-02-18T01:48:03.546Z,14.63
2018-02-18T01:50:37.729Z,14.57
2018-02-18T01:53:07.566Z,13.18
2018-02-18T01:55:37.418Z,14.90
2018-02-18T01:58:07.235Z,14.60
2018-02-18T02:00:37.118Z,14.75
2018-02-18T02:03:06.793Z,14.15
2018-02-18T02:05:36.535Z,14.40
2018-02-18T02:08:06.389Z,14.02
2018-02-18T02:10:36.637Z,13.90
2018-02-18T02:13:06.478Z,13.75
2018-02-18T02:15:36.327Z,14.80
2018-02-18T02:18:06.177Z,14.80
2018-02-18T02:20:35.739Z,14.85
2018-02-18T02:23:05.553Z,14.32
2018-02-18T02:25:35.449Z,14.10
2018-02-18T02:28:05.330Z,13.52
2018-02-18T02:30:35.201Z,15.13
2018-02-18T02:33:05.069Z,14.40
2018-02-18T02:35:34.929Z,14.55
2018-02-18T02:38:04.317Z,14.05
2018-02-18T02:40:34.158Z,13.77
2018-02-18T02:43:04.288Z,15.00
2018-02-18T02:45:34.385Z,14.38
2018-02-18T02:48:04.250Z,13.85
2018-02-18T02:50:34.114Z,15.15
2018-02-18T02:53:03.971Z,14.30
2018-02-18T02:55:33.858Z,15.23
2018-02-18T02:58:03.690Z,15.35
2018-02-18T03:00:33.533Z,15.23
2018-02-18T03:03:03.200Z,15.20
2018-02-18T03:05:32.925Z,14.98
2018-02-18T03:08:02.800Z,14.45
2018-02-18T03:10:32.612Z,16.23
2018-02-18T03:13:02.438Z,15.30
2018-02-18T03:15:32.365Z,14.00
2018-02-18T03:18:02.198Z,15.48
2018-02-18T03:20:32.408Z,15.05
2018-02-18T03:23:02.273Z,14.90
2018-02-18T03:25:32.280Z,15.80
2018-02-18T03:28:02.124Z,15.35
2018-02-18T03:30:31.951Z,14.35
2018-02-18T03:33:02.152Z,16.17
2018-02-18T03:35:32.231Z,14.43
2018-02-18T03:38:02.050Z,14.20
2018-02-18T03:40:31.884Z,16.10
2018-02-18T03:43:01.509Z,15.80
2018-02-18T03:45:31.495Z,15.15
2018-02-18T03:48:01.328Z,15.38
2018-02-18T03:50:31.179Z,15.55
2018-02-18T03:53:01.045Z,15.85
2018-02-18T03:55:30.637Z,17.45
2018-02-18T03:58:00.450Z,16.20
2018-02-18T04:00:30.284Z,17.65
2018-02-18T04:03:00.130Z,15.00
2018-02-18T04:05:30.260Z,16.58
2018-02-18T04:08:00.569Z,16.73
2018-02-18T04:10:30.441Z,17.20
2018-02-18T04:13:00.296Z,15.60
2018-02-18T04:15:30.136Z,16.25
2018-02-18T04:18:00.015Z,15.77
2018-02-18T04:20:29.845Z,17.55
2018-02-18T04:22:59.931Z,16.62
2018-02-18T04:25:30.330Z,16.55
2018-02-18T04:28:00.286Z,15.98
2018-02-18T04:30:30.185Z,16.08
2018-02-18T04:32:59.536Z,17.08
2018-02-18T04:35:29.426Z,15.95
2018-02-18T04:37:59.276Z,16.67
2018-02-18T04:40:29.362Z,15.68
2018-02-18T04:42:59.194Z,16.98
2018-02-18T04:45:29.065Z,15.60
2018-02-18T04:47:58.876Z,15.43
2018-02-18T04:50:28.721Z,14.93
2018-02-18T04:52:58.570Z,15.88
2018-02-18T04:55:28.405Z,15.52
2018-02-18T04:57:58.158Z,14.57
2018-02-18T05:00:27.970Z,16.35
2018-02-18T05:02:58.179Z,14.65
2018-02-18T05:05:28.036Z,16.30
2018-02-18T05:07:57.999Z,16.17
2018-02-18T05:10:27.797Z,14.05
2018-02-18T05:12:57.680Z,15.27
2018-02-18T05:15:27.513Z,15.05
2018-02-18T05:17:58.550Z,15.40
2018-02-18T05:20:28.407Z,15.93
2018-02-18T05:22:58.261Z,15.73
2018-02-18T05:25:28.101Z,15.68
2018-02-18T05:27:57.916Z,15.60
2018-02-18T05:30:27.723Z,14.70
2018-02-18T05:32:57.588Z,14.80
2018-02-18T05:35:27.474Z,14.75
2018-02-18T05:37:57.291Z,14.00
2018-02-18T05:40:27.134Z,15.23
2018-02-18T05:42:57.254Z,14.77
2018-02-18T05:45:27.917Z,14.95
2018-02-18T05:47:57.800Z,14.18
2018-02-18T05:50:27.384Z,14.65
2018-02-18T05:52:57.271Z,15.50
2018-02-18T05:55:27.095Z,16.48
2018-02-18T05:57:56.913Z,14.70
2018-02-18T06:00:26.765Z,14.82
2018-02-18T06:02:56.579Z,15.63
2018-02-18T06:05:26.396Z,15.32
2018-02-18T06:07:56.225Z,16.00
2018-02-18T06:10:26.062Z,15.55
2018-02-18T06:12:55.894Z,16.33
2018-02-18T06:15:25.724Z,15.23
2018-02-18T06:17:55.553Z,15.65
2018-02-18T06:20:25.633Z,15.32
2018-02-18T06:22:55.681Z,15.27
2018-02-18T06:25:25.499Z,15.30
2018-02-18T06:27:55.341Z,15.27
2018-02-18T06:30:25.203Z,17.37
2018-02-18T06:32:55.069Z,15.93
2018-02-18T06:35:24.944Z,16.87
2018-02-18T06:37:54.774Z,15.30
2018-02-18T06:40:24.642Z,15.88
2018-02-18T06:42:54.695Z,15.75
2018-02-18T06:45:24.513Z,17.02
2018-02-18T06:47:54.549Z,14.82
2018-02-18T06:50:24.366Z,16.75
2018-02-18T06:52:54.221Z,16.85
2018-02-18T06:55:24.127Z,13.75
2018-02-18T06:57:54.010Z,15.35
2018-02-18T07:00:23.824Z,15.00
2018-02-18T07:02:53.659Z,13.77
2018-02-18T07:05:23.546Z,15.30
2018-02-18T07:07:53.370Z,14.90
2018-02-18T07:10:23.213Z,14.95
2018-02-18T07:12:53.139Z,15.20
2018-02-18T07:15:23.005Z,16.37
2018-02-18T07:17:52.852Z,16.10
2018-02-18T07:20:22.901Z,13.70
2018-02-18T07:22:52.764Z,14.05
2018-02-18T07:25:22.602Z,15.90
2018-02-18T07:27:52.743Z,15.18
2018-02-18T07:30:22.613Z,13.65
2018-02-18T07:32:52.450Z,14.95
2018-02-18T07:35:22.441Z,15.00
2018-02-18T07:37:52.874Z,14.77
2018-02-18T07:40:22.770Z,14.73
2018-02-18T07:42:52.736Z,14.07
2018-02-18T07:45:22.701Z,14.25
2018-02-18T07:47:52.550Z,14.98
2018-02-18T07:50:22.408Z,14.35
2018-02-18T07:52:52.285Z,13.48
2018-02-18T07:55:22.277Z,13.98
2018-02-18T07:57:52.107Z,14.93
2018-02-18T08:00:21.937Z,16.12
2018-02-18T08:02:51.776Z,16.65
2018-02-18T08:05:21.598Z,15.50
2018-02-18T08:07:51.398Z,16.15
2018-02-18T08:10:21.236Z,14.68
2018-02-18T08:12:51.100Z,15.02
2018-02-18T08:15:21.013Z,13.95
2018-02-18T08:17:50.847Z,13.68
2018-02-18T08:20:20.868Z,15.50
2018-02-18T08:22:50.704Z,13.57
2018-02-18T08:25:20.832Z,13.27
2018-02-18T08:27:50.670Z,13.02
2018-02-18T08:30:20.494Z,13.40
2018-02-18T08:32:50.308Z,13.45
2018-02-18T08:35:20.148Z,13.13
2018-02-18T08:37:49.980Z,12.45
2018-02-18T08:40:19.811Z,13.73
2018-02-18T08:42:49.656Z,13.35
2018-02-18T08:45:19.529Z,15.02
2018-02-18T08:47:49.421Z,14.80
2018-02-18T08:50:19.294Z,12.85
2018-02-18T08:52:49.427Z,13.70
2018-02-18T08:55:19.426Z,15.88
2018-02-18T08:57:49.267Z,14.00
2018-02-18T09:00:19.166Z,13.02
2018-02-18T09:02:49.000Z,14.38
2018-02-18T09:05:18.878Z,14.40
2018-02-18T09:07:48.793Z,13.90
2018-02-18T09:10:18.694Z,13.00
2018-02-18T09:12:48.622Z,14.48
2018-02-18T09:15:18.663Z,13.57
2018-02-18T09:17:48.593Z,13.40
2018-02-18T09:20:18.715Z,14.90
2018-02-18T09:22:48.936Z,13.18
2018-02-18T09:25:19.359Z,14.30
2018-02-18T09:27:49.326Z,13.50
2018-02-18T09:30:19.389Z,13.93
2018-02-18T09:32:49.487Z,14.80
2018-02-18T09:38:00.563Z,13.80
2018-02-18T09:40:31.770Z,13.88
2018-02-18T09:43:02.482Z,13.88
2018-02-18T09:45:32.571Z,13.57
2018-02-18T09:48:07.677Z,14.02
2018-02-18T09:50:37.964Z,15.10
2018-02-18T09:53:08.475Z,13.88
2018-02-18T09:55:39.024Z,14.57
2018-02-18T09:58:09.207Z,13.30
2018-02-18T10:00:39.350Z,15.00
2018-02-18T10:03:09.487Z,13.70
2018-02-18T10:05:39.185Z,13.07
2018-02-18T10:08:09.075Z,13.70
2018-02-18T10:10:38.926Z,14.40
2018-02-18T10:13:11.106Z,14.85
2018-02-18T10:15:42.012Z,14.80
2018-02-18T10:18:11.842Z,14.13
2018-02-18T10:20:46.263Z,14.82
2018-02-18T10:23:16.467Z,13.30
2018-02-18T10:25:48.012Z,14.43
2018-02-18T10:28:18.843Z,14.40
2018-02-18T10:30:53.190Z,15.13
2018-02-18T10:33:23.478Z,13.35
2018-02-18T10:35:56.307Z,14.80
2018-02-18T10:38:26.446Z,15.00
2018-02-18T10:43:31.396Z,14.15
2018-02-18T10:46:01.468Z,13.73
2018-02-18T10:48:31.526Z,14.50
2018-02-18T10:51:05.799Z,14.32
2018-02-18T10:53:35.994Z,15.65
2018-02-18T10:56:07.825Z,14.23
2018-02-18T10:58:38.939Z,14.00
2018-02-18T11:01:09.279Z,15.85
2018-02-18T11:03:40.141Z,14.63
2018-02-18T11:06:12.974Z,14.43
2018-02-18T11:08:43.197Z,13.82
2018-02-18T11:11:13.480Z,14.30
2018-02-18T11:13:47.321Z,14.52
2018-02-18T11:16:17.536Z,14.05
2018-02-18T11:18:52.083Z,14.87
2018-02-18T11:32:02.229Z,14.02
2018-02-18T11:34:34.573Z,14.82
2018-02-18T11:39:52.732Z,16.55
2018-02-18T11:42:25.312Z,15.38
2018-02-18T11:44:55.646Z,16.02
2018-02-18T11:50:08.138Z,15.48
2018-02-18T11:52:46.787Z,15.25
2018-02-18T11:55:17.669Z,14.93
2018-02-18T11:57:49.175Z,14.35
2018-02-18T12:00:21.024Z,14.93
2018-02-18T12:02:51.098Z,15.57
2018-02-18T12:05:21.259Z,14.57
2018-02-18T12:07:51.245Z,15.13
2018-02-18T12:10:21.076Z,13.55
2018-02-18T12:12:50.980Z,15.45
2018-02-18T12:15:21.539Z,15.45
2018-02-18T12:17:52.849Z,15.50
2018-02-18T12:20:23.495Z,15.55
2018-02-18T12:22:53.452Z,16.23
2018-02-18T12:25:23.370Z,17.27
2018-02-18T12:27:53.180Z,18.15
2018-02-18T12:30:23.056Z,16.58
2018-02-18T12:32:52.938Z,17.25
2018-02-18T12:35:22.912Z,17.77
2018-02-18T12:37:53.246Z,17.23
2018-02-18T12:40:24.103Z,16.37
2018-02-18T12:42:54.029Z,18.52
2018-02-18T12:45:23.943Z,19.30
2018-02-18T12:47:54.786Z,17.90
2018-02-18T12:50:24.762Z,19.10
2018-02-18T12:52:54.686Z,19.30
2018-02-18T12:55:24.610Z,19.15
2018-02-18T12:57:55.579Z,19.80
2018-02-18T13:03:09.375Z,19.07
2018-02-18T13:05:39.072Z,22.47
2018-02-18T13:08:08.877Z,19.17
2018-02-18T13:10:39.259Z,21.03
2018-02-18T13:13:11.745Z,18.53
2018-02-18T13:15:41.425Z,19.67
2018-02-18T13:18:11.375Z,19.40
2018-02-18T13:20:40.971Z,16.23
2018-02-18T13:23:10.548Z,18.90
2018-02-18T13:25:40.117Z,17.63
2018-02-18T13:28:09.736Z,17.17
2018-02-18T13:30:39.822Z,20.13
2018-02-18T13:33:09.802Z,16.90
2018-02-18T13:35:40.222Z,16.62
2018-02-18T13:38:10.995Z,15.20
2018-02-18T13:40:40.838Z,14.65
2018-02-18T13:43:10.692Z,15.80
2018-02-18T13:45:40.633Z,14.18
2018-02-18T13:48:10.740Z,13.50
2018-02-18T13:50:41.220Z,10.98
2018-02-18T13:53:11.400Z,12.93
2018-02-18T13:55:41.413Z,11.88
2018-02-18T13:58:15.226Z,12.25
2018-02-18T14:00:46.978Z,12.30
2018-02-18T14:03:20.752Z,12.07
2018-02-18T14:05:51.612Z,12.30
2018-02-18T14:08:21.477Z,11.90
2018-02-18T14:13:26.066Z,9.30
2018-02-18T14:15:55.926Z,9.35
2018-02-18T14:18:28.056Z,9.98
2018-02-18T14:20:59.273Z,9.05
2018-02-18T14:23:29.182Z,9.43
2018-02-18T14:25:58.908Z,9.30
2018-02-18T14:28:29.458Z,9.57
2018-02-18T14:30:59.380Z,8.85
2018-02-18T14:33:29.285Z,9.32
2018-02-18T14:35:59.297Z,8.48
2018-02-18T14:38:29.175Z,9.25
2018-02-18T14:40:59.149Z,10.15
2018-02-18T14:43:40.064Z,9.02
2018-02-18T14:46:21.343Z,9.77
2018-02-18T14:49:02.371Z,8.27
2018-02-18T14:51:43.525Z,9.20
2018-02-18T15:00:10.306Z,9.35
2018-02-18T15:02:39.933Z,9.65
2018-02-18T15:05:09.666Z,9.95
2018-02-18T15:07:39.815Z,11.20
2018-02-18T15:10:11.259Z,10.55
2018-02-18T15:12:41.160Z,11.43
2018-02-18T15:15:11.439Z,13.77
2018-02-18T15:17:41.687Z,12.55
2018-02-18T15:20:11.864Z,12.25
2018-02-18T15:23:06.521Z,12.98
2018-02-18T15:25:36.430Z,12.30
2018-02-18T15:28:07.432Z,12.02
2018-02-18T15:30:37.352Z,12.32
2018-02-18T15:33:07.302Z,13.65
2018-02-18T15:35:38.663Z,11.75
2018-02-18T15:38:08.635Z,12.55
2018-02-18T15:40:39.566Z,12.25
2018-02-18T15:43:09.549Z,12.85
2018-02-18T15:48:13.982Z,13.30
2018-02-18T15:50:44.638Z,12.23
2018-02-18T15:53:14.766Z,12.55
2018-02-18T15:56:01.710Z,13.23
2018-02-18T15:58:31.721Z,13.27
2018-02-18T16:01:01.657Z,13.25
2018-02-18T16:03:31.534Z,12.60
2018-02-18T16:06:02.472Z,13.20
2018-02-18T16:08:44.202Z,14.18
2018-02-18T16:11:14.883Z,13.13
2018-02-18T16:13:46.943Z,15.27
2018-02-18T16:16:16.785Z,12.40
2018-02-18T16:18:47.529Z,13.73
2018-02-18T16:21:17.444Z,13.38
2018-02-18T16:23:48.568Z,13.13
2018-02-18T16:29:25.433Z,11.30
2018-02-18T16:32:01.012Z,11.40
2018-02-18T16:34:38.521Z,11.95
2018-02-18T16:37:09.275Z,13.13
2018-02-18T16:39:45.555Z,12.50
2018-02-18T16:42:18.826Z,11.20
2018-02-18T16:44:48.683Z,12.35
2018-02-18T16:47:18.616Z,14.35
2018-02-18T16:49:50.047Z,14.18
2018-02-18T16:52:28.756Z,14.95
2018-02-18T16:54:58.549Z,15.05
2018-02-18T16:57:28.560Z,15.07
2018-02-18T16:59:58.607Z,13.32
2018-02-18T17:02:28.453Z,14.10
2018-02-18T17:04:58.153Z,14.48
2018-02-18T17:07:28.278Z,14.82
2018-02-18T17:10:26.059Z,14.35
2018-02-18T17:13:17.836Z,14.50
2018-02-18T17:15:47.837Z,15.50
2018-02-18T17:18:17.940Z,15.80
2018-02-18T17:20:47.565Z,15.85
2018-02-18T17:23:17.782Z,15.18
2018-02-18T17:25:47.738Z,16.48
2018-02-18T17:28:19.485Z,16.08
2018-02-18T17:30:49.419Z,16.55
2018-02-18T17:33:19.480Z,16.45
2018-02-18T17:35:49.746Z,13.68
2018-02-18T17:38:21.136Z,15.43
2018-02-18T17:40:51.427Z,15.90
2018-02-18T17:43:28.284Z,16.12
2018-02-18T17:45:58.285Z,16.23
2018-02-18T17:51:02.486Z,15.52
2018-02-18T17:56:08.989Z,17.30
2018-02-18T17:58:43.187Z,19.33
2018-02-18T18:03:49.107Z,16.60
2018-02-18T18:08:53.428Z,16.25
2018-02-18T18:11:23.371Z,17.02
2018-02-18T18:16:30.878Z,14.98
2018-02-18T18:19:01.348Z,15.30
2018-02-18T18:21:32.471Z,17.08
2018-02-18T18:24:02.436Z,15.85
2018-02-18T18:26:32.412Z,15.73
2018-02-18T18:29:03.449Z,14.95
2018-02-18T18:34:26.170Z,15.23
2018-02-18T18:39:33.385Z,15.85
2018-02-18T18:44:37.442Z,13.60
2018-02-18T18:47:09.080Z,16.98
2018-02-18T18:49:40.860Z,15.73
2018-02-18T18:52:15.796Z,17.95
2018-02-18T18:54:45.768Z,16.30
2018-02-18T18:59:50.959Z,18.60
2018-02-18T19:02:21.135Z,16.65
2018-02-18T19:04:51.792Z,18.10
2018-02-18T19:07:25.369Z,17.35
2018-02-18T19:09:56.225Z,14.65
2018-02-18T19:12:27.438Z,16.67
2018-02-18T19:14:57.731Z,14.80
2018-02-18T19:17:27.678Z,12.55
2018-02-18T19:19:57.661Z,12.90
2018-02-18T19:22:27.598Z,16.33
2018-02-18T19:24:58.913Z,15.82
2018-02-18T19:27:29.931Z,15.82
2018-02-18T19:29:59.899Z,14.70
2018-02-18T19:32:30.942Z,14.07
2018-02-18T19:35:00.865Z,14.98
2018-02-18T19:37:45.954Z,14.93
2018-02-18T19:40:16.286Z,13.77
2018-02-18T19:42:46.219Z,13.02
2018-02-18T19:45:18.293Z,13.70
2018-02-18T19:47:48.102Z,12.27
2018-02-18T19:50:18.431Z,12.82
2018-02-18T19:52:52.404Z,12.80
2018-02-18T19:55:22.405Z,12.40
2018-02-18T19:57:52.798Z,13.52
2018-02-18T20:00:22.760Z,13.13
2018-02-18T20:02:52.658Z,12.90
2018-02-18T20:05:22.694Z,13.13
2018-02-18T20:07:53.400Z,11.73
2018-02-18T20:10:23.324Z,11.43
2018-02-18T20:12:53.242Z,12.05
2018-02-18T20:15:24.930Z,13.85
2018-02-18T20:18:01.547Z,12.73
2018-02-18T20:20:33.973Z,13.15
2018-02-18T20:23:04.104Z,12.20
2018-02-18T20:25:34.136Z,11.30
2018-02-18T20:28:05.578Z,11.02
2018-02-18T20:33:15.512Z,11.25
2018-02-18T20:35:50.250Z,10.55
2018-02-18T20:38:20.062Z,9.35
2018-02-18T20:40:49.935Z,9.63
2018-02-18T20:43:19.922Z,9.35
2018-02-18T20:45:49.889Z,8.82
2018-02-18T20:48:20.219Z,8.45
2018-02-18T20:50:51.023Z,9.50
2018-02-18T20:53:25.348Z,8.18
2018-02-18T20:55:55.316Z,7.70
2018-02-18T20:58:25.157Z,6.47
2018-02-18T21:00:55.941Z,7.80
2018-02-18T21:03:26.727Z,6.15
2018-02-18T21:05:58.992Z,6.20
2018-02-18T21:11:07.670Z,5.78
2018-02-18T21:13:37.698Z,5.97
2018-02-18T21:16:07.350Z,5.25
2018-02-18T21:18:36.946Z,5.80
2018-02-18T21:21:06.898Z,5.43
2018-02-18T21:23:37.289Z,5.62
2018-02-18T21:26:07.321Z,4.90
2018-02-18T21:28:37.661Z,4.85
2018-02-18T21:31:07.345Z,5.78
2018-02-18T21:33:37.420Z,4.80
2018-02-18T21:36:07.702Z,4.50
2018-02-18T21:38:37.637Z,4.53
2018-02-18T21:41:07.585Z,5.00
2018-02-18T21:43:38.560Z,4.55
2018-02-18T21:46:08.817Z,4.53
2018-02-18T21:48:38.634Z,4.72
2018-02-18T21:51:08.263Z,4.03
2018-02-18T21:53:38.347Z,4.30
2018-02-18T21:56:08.306Z,4.28
2018-02-18T21:58:39.216Z,4.60
2018-02-18T22:01:10.444Z,4.68
2018-02-18T22:03:40.609Z,3.95
2018-02-18T22:08:50.893Z,4.10
2018-02-18T22:11:20.810Z,4.30
2018-02-18T22:13:50.624Z,4.40
2018-02-18T22:16:23.012Z,4.65
2018-02-18T22:18:56.848Z,4.68
2018-02-18T22:24:09.379Z,4.50
2018-02-18T22:26:40.471Z,4.15
2018-02-18T22:29:10.687Z,4.68
2018-02-18T22:32:20.274Z,4.60
2018-02-18T22:34:50.486Z,4.10
2018-02-18T22:37:20.395Z,4.30
2018-02-18T22:39:50.389Z,4.72
2018-02-18T22:42:20.283Z,4.28
2018-02-18T22:44:50.481Z,5.10
2018-02-18T22:47:20.548Z,4.80
2018-02-18T22:49:50.492Z,4.85
2018-02-18T22:52:20.547Z,4.40
2018-02-18T22:54:52.565Z,4.95
2018-02-18T22:57:22.736Z,5.40
2018-02-18T22:59:52.847Z,5.30
2018-02-18T23:02:25.924Z,4.97
2018-02-18T23:05:01.214Z,4.68
2018-02-18T23:07:31.121Z,4.62
2018-02-18T23:10:01.068Z,5.10
2018-02-18T23:12:31.677Z,5.82
2018-02-18T23:15:14.289Z,5.57
2018-02-18T23:17:44.186Z,4.85
2018-02-18T23:20:14.020Z,5.35
2018-02-18T23:22:43.639Z,5.37
2018-02-18T23:31:07.376Z,4.85
2018-02-18T23:33:37.456Z,5.18
2018-02-18T23:36:07.392Z,5.90
2018-02-18T23:38:37.250Z,5.70
2018-02-18T23:41:07.311Z,5.20
2018-02-18T23:43:37.236Z,5.57
2018-02-18T23:46:07.108Z,6.47
2018-02-18T23:48:36.971Z,6.00
2018-02-18T23:51:06.930Z,5.95
2018-02-18T23:53:36.785Z,6.12
2018-02-18T23:56:06.701Z,6.43
2018-02-18T23:58:36.597Z,7.43
